Akashi — JM6695 — position and weather

sailwx.info

Track history (hours):
 
Tides and Currents Weather Stations Pressure Air Temp Water Temp Dewpoint Dewpoint Depression Visibility Wind Speed Wind Dir Waves Ship Positions

Akashi

Last reported at 2018-Jul-22 06:26 UTC. Time now 2018-Jul-22 06:52 UTC.
Position N 34°41' E 135°12'.

Length 75 m; draft 5 m.

Type: Cargo ship. MMSI: 431301627.

Date/timePositionNaut miles runAvg speedWind from/ knotsBaromVisibWave heightAir tempDewpointWater temp
2018-Jul-22 06:26N 34°41' E 135°12'0 0.0
2018-Jul-22 05:56N 34°41' E 135°12'0 0.0
2018-Jul-22 05:26N 34°41' E 135°12'0 0.0
2018-Jul-22 04:50N 34°41' E 135°12'0 0.0
2018-Jul-22 04:26N 34°41' E 135°12'0 0.0
2018-Jul-22 03:56N 34°41' E 135°12'0 0.0
2018-Jul-22 03:26N 34°41' E 135°12'0 0.0
2018-Jul-22 02:56N 34°41' E 135°12'0 0.0
2018-Jul-22 02:26N 34°41' E 135°12'0 0.0
2018-Jul-22 01:50N 34°41' E 135°12'0 0.0
2018-Jul-22 01:26N 34°41' E 135°12'0 0.0
2018-Jul-22 00:56N 34°41' E 135°12'0 0.0
2018-Jul-22 00:26N 34°41' E 135°12'0 0.0
2018-Jul-22 00:00N 34°41' E 135°12'2 4.8
2018-Jul-21 23:30N 34°40' E 135°15'2 3.3
2018-Jul-21 23:00N 34°39' E 135°15'0 0.0
2018-Jul-21 22:29N 34°39' E 135°15'0 0.0
2018-Jul-21 22:00N 34°39' E 135°15'0 0.0
2018-Jul-21 21:21N 34°39' E 135°15'0 0.0
2018-Jul-21 20:57N 34°39' E 135°15'0 0.0
2018-Jul-21 20:27N 34°39' E 135°15'0 0.0
2018-Jul-21 19:57N 34°39' E 135°15'0 0.0
2018-Jul-21 19:27N 34°39' E 135°15'0 0.0
2018-Jul-21 18:57N 34°39' E 135°15'0 0.0
2018-Jul-21 18:27N 34°39' E 135°15'0 0.0
2018-Jul-21 17:51N 34°38' E 135°15'0 0.0
2018-Jul-21 17:27N 34°38' E 135°15'0 0.1
2018-Jul-21 16:51N 34°38' E 135°15'0 0.0
2018-Jul-21 16:27N 34°38' E 135°15'0 0.0
2018-Jul-21 15:45N 34°38' E 135°15'0 0.0
2018-Jul-21 15:27N 34°38' E 135°15'0 0.0
2018-Jul-21 14:51N 34°39' E 135°15'0 0.4
2018-Jul-21 14:30N 34°38' E 135°15'1111.0
2018-Jul-21 13:31N 34°36' E 135°02'812.4
2018-Jul-21 12:52N 34°35' E 134°53'513.0
2018-Jul-21 12:30N 34°33' E 134°48'612.7
2018-Jul-21 12:00N 34°30' E 134°41'612.2
2018-Jul-21 11:30N 34°28' E 134°34'612.2
2018-Jul-21 11:00N 34°26' E 134°27'612.0
2018-Jul-21 10:30N 34°24' E 134°20'7 0.3
2018-Jul-20 12:44N 34°25' E 134°12'312.1
2018-Jul-20 12:31N 34°24' E 134°15'1212.2
2018-Jul-20 11:31N 34°28' E 134°29'011.8
2018-Jul-20 11:29N 34°29' E 134°29'2012.1
2018-Jul-20 09:51N 34°35' E 134°52'512.4
2018-Jul-20 09:28N 34°37' E 134°57'611.5
2018-Jul-20 08:59N 34°36' E 135°04'611.5
2018-Jul-20 08:30N 34°37' E 135°11'4 8.0
2018-Jul-20 08:00N 34°39' E 135°15'1 1.0
2018-Jul-20 07:31N 34°39' E 135°15'510.3
2018-Jul-20 07:00N 34°39' E 135°21'3 6.2
2018-Jul-20 06:30N 34°38' E 135°25'0 0.1
2018-Jul-20 06:00N 34°38' E 135°25'2 3.8
2018-Jul-20 05:30N 34°38' E 135°23'0 0.0
2018-Jul-20 04:56N 34°38' E 135°23'0 0.0
2018-Jul-20 04:26N 34°38' E 135°23'0 0.1
2018-Jul-20 03:58N 34°38' E 135°23'4 8.9
2018-Jul-20 03:31N 34°36' E 135°18'4 8.2
2018-Jul-20 03:00N 34°39' E 135°15'0 0.3
2018-Jul-20 02:30N 34°39' E 135°15'1 2.0
2018-Jul-20 02:00N 34°40' E 135°14'1 3.0
2018-Jul-20 01:30N 34°41' E 135°15'0 0.1
2018-Jul-20 01:00N 34°41' E 135°15'0 0.0
2018-Jul-20 00:30N 34°41' E 135°15'0 0.0
2018-Jul-20 00:00N 34°41' E 135°15'2 4.3
2018-Jul-19 23:31N 34°39' E 135°15'0 0.2
2018-Jul-19 22:59N 34°39' E 135°15'0 0.0
2018-Jul-19 22:29N 34°39' E 135°15'0 0.0
2018-Jul-19 21:59N 34°39' E 135°15'0 0.0
2018-Jul-19 21:29N 34°39' E 135°15'0 0.0
2018-Jul-19 20:53N 34°39' E 135°15'0 0.0
2018-Jul-19 20:17N 34°39' E 135°15'0 0.0
2018-Jul-19 19:59N 34°39' E 135°15'0 0.0
2018-Jul-19 19:26N 34°39' E 135°15'0 0.0
2018-Jul-19 18:59N 34°39' E 135°15'0 0.0
2018-Jul-19 18:29N 34°39' E 135°15'0 0.0
2018-Jul-19 17:59N 34°39' E 135°15'0 0.0
2018-Jul-19 17:29N 34°39' E 135°15'0 0.0
2018-Jul-19 16:53N 34°39' E 135°15'0 0.1
2018-Jul-19 16:29N 34°39' E 135°15'2 5.0
2018-Jul-19 16:00N 34°37' E 135°13'611.7
2018-Jul-19 15:29N 34°35' E 135°06'5 9.4
2018-Jul-19 15:00N 34°37' E 135°01'710.4
2018-Jul-19 14:17N 34°34' E 134°52'911.6
2018-Jul-19 13:30N 34°31' E 134°42'612.4
2018-Jul-19 13:00N 34°29' E 134°35'612.1
2018-Jul-19 12:29N 34°26' E 134°28'612.2
2018-Jul-19 12:00N 34°24' E 134°21'6 0.3
2018-Jul-18 14:40N 34°24' E 134°14'513.2
2018-Jul-18 14:17N 34°25' E 134°20'1012.4
2018-Jul-18 13:31N 34°29' E 134°31'1912.6
2018-Jul-18 12:00N 34°35' E 134°52'612.6
2018-Jul-18 11:30N 34°38' E 134°59'1010.1
2018-Jul-18 10:31N 34°36' E 135°11'611.8
2018-Jul-18 10:00N 34°37' E 135°19'5 9.5
2018-Jul-18 09:31N 34°37' E 135°24'1 1.2
2018-Jul-18 09:00N 34°38' E 135°25'0 0.0
2018-Jul-18 08:31N 34°38' E 135°25'0 0.0
2018-Jul-18 07:59N 34°38' E 135°25'1 1.4
2018-Jul-18 07:31N 34°38' E 135°24'2 2.9
2018-Jul-18 06:59N 34°37' E 135°22'0 0.0
2018-Jul-18 06:29N 34°37' E 135°22'0 0.0
2018-Jul-18 05:59N 34°37' E 135°22'0 0.0
2018-Jul-18 05:17N 34°37' E 135°22'0 0.0
2018-Jul-18 04:59N 34°37' E 135°22'0 0.0
2018-Jul-18 04:23N 34°37' E 135°22'0 0.0
2018-Jul-18 03:59N 34°37' E 135°22'0 0.1
2018-Jul-18 03:29N 34°37' E 135°22'2 3.1
2018-Jul-18 02:57N 34°36' E 135°21'4 8.3
2018-Jul-18 02:30N 34°38' E 135°17'3 5.4
2018-Jul-18 02:00N 34°40' E 135°14'0 0.0
2018-Jul-18 01:30N 34°40' E 135°14'0 0.1
2018-Jul-18 01:00N 34°40' E 135°14'1 1.7
2018-Jul-18 00:29N 34°39' E 135°15'0 0.0
2018-Jul-18 00:00N 34°39' E 135°15'0 0.1
2018-Jul-17 23:30N 34°39' E 135°15'0 0.6
2018-Jul-17 23:00N 34°39' E 135°15'0 0.1
2018-Jul-17 22:24N 34°39' E 135°15'0 0.0
2018-Jul-17 21:36N 34°39' E 135°15'0 0.1
2018-Jul-17 21:27N 34°39' E 135°15'0 0.1
2018-Jul-17 21:00N 34°39' E 135°15'0 0.0
2018-Jul-17 20:30N 34°39' E 135°15'0 0.0
2018-Jul-17 20:00N 34°39' E 135°15'0 0.0
2018-Jul-17 19:30N 34°39' E 135°15'0 0.0
2018-Jul-17 19:00N 34°39' E 135°15'0 0.1
2018-Jul-17 18:30N 34°39' E 135°15'0 0.0
2018-Jul-17 18:00N 34°39' E 135°15'0 0.0
2018-Jul-17 17:30N 34°39' E 135°15'0 0.1
2018-Jul-17 17:00N 34°39' E 135°15'4 8.7
2018-Jul-17 16:31N 34°36' E 135°10'611.0
2018-Jul-17 16:00N 34°36' E 135°04'5 9.2
2018-Jul-17 15:28N 34°37' E 134°58'4 9.2
2018-Jul-17 15:00N 34°35' E 134°53'4 8.7
2018-Jul-17 14:30N 34°33' E 134°48'510.3
2018-Jul-17 14:00N 34°31' E 134°43'611.5
2018-Jul-17 13:30N 34°29' E 134°36'612.1
2018-Jul-17 13:00N 34°27' E 134°29'611.7
2018-Jul-17 12:29N 34°24' E 134°22'7 0.3
2018-Jul-16 12:02N 34°24' E 134°13'115.5
2018-Jul-16 12:00N 34°24' E 134°14'713.7
2018-Jul-16 11:30N 34°25' E 134°22'713.0
2018-Jul-16 10:57N 34°28' E 134°30'1612.3
2018-Jul-16 09:39N 34°34' E 134°48'212.6
2018-Jul-16 09:28N 34°35' E 134°51'611.8
2018-Jul-16 08:59N 34°37' E 134°57'4 9.2
2018-Jul-16 08:30N 34°37' E 135°03'4 8.3
2018-Jul-16 08:00N 34°36' E 135°08'612.0
2018-Jul-16 07:30N 34°38' E 135°15'2 4.3
2018-Jul-16 07:00N 34°40' E 135°14'0 0.0
2018-Jul-16 06:30N 34°40' E 135°14'0 0.4
2018-Jul-16 06:00N 34°40' E 135°14'1 2.7
2018-Jul-16 05:29N 34°39' E 135°16'4 8.2
2018-Jul-16 05:00N 34°39' E 135°20'4 7.7
2018-Jul-16 04:30N 34°38' E 135°25'0 0.2
2018-Jul-16 04:00N 34°38' E 135°25'0 0.0
2018-Jul-16 03:30N 34°38' E 135°25'2 3.7
2018-Jul-16 03:00N 34°38' E 135°23'4 8.0
2018-Jul-16 02:30N 34°39' E 135°19'2 4.2
2018-Jul-16 02:00N 34°41' E 135°17'0 0.7
2018-Jul-16 01:30N 34°41' E 135°16'2 4.0
2018-Jul-16 01:00N 34°39' E 135°15'0 0.1
2018-Jul-16 00:30N 34°39' E 135°15'0 0.0
2018-Jul-16 00:00N 34°39' E 135°15'0 0.2
2018-Jul-15 23:30N 34°39' E 135°15'1 1.6
2018-Jul-15 23:00N 34°40' E 135°15'1 2.8
2018-Jul-15 22:30N 34°40' E 135°13'0 0.0
2018-Jul-15 22:00N 34°40' E 135°13'0 0.0
2018-Jul-15 21:28N 34°40' E 135°13'0 0.0
2018-Jul-15 20:58N 34°40' E 135°13'0 0.0
2018-Jul-15 20:28N 34°40' E 135°13'0 0.0
2018-Jul-15 19:52N 34°40' E 135°13'0 0.0
2018-Jul-15 19:28N 34°40' E 135°13'0 0.0
2018-Jul-15 18:58N 34°40' E 135°13'0 0.0
2018-Jul-15 18:22N 34°40' E 135°13'0 0.0
2018-Jul-15 17:58N 34°40' E 135°13'0 0.0
2018-Jul-15 17:22N 34°40' E 135°13'0 0.0
2018-Jul-15 16:58N 34°40' E 135°13'0 0.0
2018-Jul-15 16:28N 34°40' E 135°13'0 0.0
2018-Jul-15 15:58N 34°40' E 135°13'0 0.0
2018-Jul-15 15:28N 34°40' E 135°13'0 0.0
2018-Jul-15 14:52N 34°40' E 135°13'0 0.0
2018-Jul-15 14:22N 34°40' E 135°13'0 0.0
2018-Jul-15 13:58N 34°40' E 135°13'0 0.0
2018-Jul-15 13:28N 34°40' E 135°13'0 0.0
2018-Jul-15 12:58N 34°40' E 135°13'0 0.0
2018-Jul-15 12:28N 34°40' E 135°13'0 0.0
2018-Jul-15 11:58N 34°40' E 135°13'0 0.0
2018-Jul-15 11:28N 34°40' E 135°13'0 0.0
2018-Jul-15 10:58N 34°40' E 135°13'0 0.0
2018-Jul-15 10:16N 34°40' E 135°13'0 0.0
2018-Jul-15 09:58N 34°40' E 135°13'0 0.0
2018-Jul-15 09:22N 34°40' E 135°13'0 0.0
2018-Jul-15 08:58N 34°40' E 135°13'0 0.0
2018-Jul-15 08:28N 34°40' E 135°13'0 0.0
2018-Jul-15 07:58N 34°40' E 135°13'0 0.0
2018-Jul-15 07:22N 34°40' E 135°13'0 0.0
2018-Jul-15 06:58N 34°40' E 135°13'0 0.0
2018-Jul-15 06:28N 34°40' E 135°13'0 0.0
2018-Jul-15 05:58N 34°40' E 135°13'0 0.0
2018-Jul-15 05:28N 34°40' E 135°13'0 0.0
2018-Jul-15 04:58N 34°40' E 135°13'0 0.0
2018-Jul-15 04:28N 34°40' E 135°13'0 0.0
2018-Jul-15 03:58N 34°40' E 135°13'0 0.0
2018-Jul-15 03:28N 34°40' E 135°13'0 0.0
2018-Jul-15 02:58N 34°40' E 135°13'0 0.0
2018-Jul-15 02:28N 34°40' E 135°13'0 0.0
2018-Jul-15 01:58N 34°40' E 135°13'0 0.0
2018-Jul-15 01:28N 34°40' E 135°13'0 0.0
2018-Jul-15 00:52N 34°40' E 135°13'0 0.0
2018-Jul-15 00:28N 34°40' E 135°13'0 0.0
2018-Jul-15 00:01N 34°40' E 135°13'1 2.7
2018-Jul-14 23:31N 34°40' E 135°15'1 2.9
2018-Jul-14 23:01N 34°39' E 135°15'0 0.1
2018-Jul-14 22:29N 34°39' E 135°15'0 0.1
2018-Jul-14 21:53N 34°39' E 135°15'0 0.1
2018-Jul-14 21:23N 34°39' E 135°15'0 0.0
2018-Jul-14 20:59N 34°39' E 135°15'0 0.0
2018-Jul-14 20:29N 34°39' E 135°15'0 0.0
2018-Jul-14 19:59N 34°39' E 135°15'0 0.0
2018-Jul-14 19:29N 34°39' E 135°15'0 0.0
2018-Jul-14 18:59N 34°39' E 135°15'0 0.0
2018-Jul-14 18:29N 34°39' E 135°15'0 0.0
2018-Jul-14 17:59N 34°39' E 135°15'0 0.0
2018-Jul-14 17:29N 34°39' E 135°15'0 0.0
2018-Jul-14 16:59N 34°39' E 135°15'0 0.0
2018-Jul-14 16:26N 34°39' E 135°15'0 0.0
2018-Jul-14 15:59N 34°39' E 135°15'0 0.0
2018-Jul-14 15:29N 34°39' E 135°15'0 0.0
2018-Jul-14 14:56N 34°39' E 135°15'0 0.0
2018-Jul-14 14:29N 34°39' E 135°15'0 0.0
2018-Jul-14 13:29N 34°39' E 135°15'0 0.1
2018-Jul-14 13:00N 34°39' E 135°15'510.0
2018-Jul-14 12:30N 34°36' E 135°10'611.3
2018-Jul-14 12:00N 34°36' E 135°03'5 7.4
2018-Jul-14 11:22N 34°36' E 134°57'4 9.3
2018-Jul-14 10:59N 34°35' E 134°53'5 9.7
2018-Jul-14 10:30N 34°33' E 134°48'611.4
2018-Jul-14 10:00N 34°31' E 134°41'612.7
2018-Jul-14 09:30N 34°28' E 134°34'612.8
2018-Jul-14 09:00N 34°26' E 134°27'612.7
2018-Jul-14 08:30N 34°24' E 134°20'2 0.1
2018-Jul-13 09:39N 34°25' E 134°22'213.4
2018-Jul-13 09:30N 34°26' E 134°24'2412.7
2018-Jul-13 07:38N 34°35' E 134°51'312.3
2018-Jul-13 07:25N 34°36' E 134°54'611.2
2018-Jul-13 06:52N 34°37' E 135°01'3 8.5
2018-Jul-13 06:30N 34°36' E 135°05'612.1
2018-Jul-13 06:00N 34°37' E 135°12'611.2
2018-Jul-13 05:30N 34°40' E 135°18'1 2.1
2018-Jul-13 04:51N 34°41' E 135°17'1 3.8
2018-Jul-13 04:30N 34°40' E 135°15'1 2.1
2018-Jul-13 04:00N 34°40' E 135°14'0 0.0
2018-Jul-13 03:31N 34°40' E 135°14'0 0.0
2018-Jul-13 03:01N 34°40' E 135°14'0 0.0
2018-Jul-13 02:30N 34°40' E 135°14'1 1.8
2018-Jul-13 02:00N 34°39' E 135°15'0 0.3
2018-Jul-13 01:28N 34°39' E 135°15'0 0.0
2018-Jul-13 01:01N 34°39' E 135°15'1 1.6
2018-Jul-13 00:31N 34°40' E 135°15'1 2.0
2018-Jul-13 00:00N 34°41' E 135°15'0 0.0
2018-Jul-12 23:31N 34°41' E 135°15'1 2.9
2018-Jul-12 23:00N 34°39' E 135°15'1 1.4
2018-Jul-12 22:30N 34°39' E 135°15'0 0.0
2018-Jul-12 21:55N 34°39' E 135°15'0 0.1
2018-Jul-12 21:28N 34°39' E 135°15'0 0.1
2018-Jul-12 20:49N 34°39' E 135°15'0 0.0
2018-Jul-12 20:28N 34°39' E 135°15'0 0.0
2018-Jul-12 19:55N 34°39' E 135°15'0 0.0
2018-Jul-12 19:28N 34°39' E 135°15'0 0.0
2018-Jul-12 18:49N 34°39' E 135°15'0 0.0
2018-Jul-12 18:25N 34°39' E 135°15'0 0.0
2018-Jul-12 17:55N 34°39' E 135°15'0 0.0
2018-Jul-12 17:25N 34°39' E 135°15'1 3.5
2018-Jul-12 17:00N 34°38' E 135°14'611.3
2018-Jul-12 16:30N 34°35' E 135°08'612.9
2018-Jul-12 16:00N 34°37' E 134°60'612.5
2018-Jul-12 15:31N 34°35' E 134°53'611.3
2018-Jul-12 15:01N 34°33' E 134°47'511.0
2018-Jul-12 14:31N 34°31' E 134°40'611.9
2018-Jul-12 14:00N 34°28' E 134°34'611.8
2018-Jul-12 13:30N 34°26' E 134°27'711.1
2018-Jul-12 12:50N 34°24' E 134°19'  
Track history (hours):
 
Tides and Currents Weather Stations Pressure Air Temp Water Temp Dewpoint Dewpoint Depression Visibility Wind Speed Wind Dir Waves Ship Positions

Akashi

Last reported at 2018-Jul-22 06:26 UTC. Time now 2018-Jul-22 06:52 UTC.
Position N 34°41' E 135°12'.

Length 75 m; draft 5 m.

Type: Cargo ship. MMSI: 431301627.

Date/timePositionNaut miles runAvg speedWind from/ knotsBaromVisibWave heightAir tempDewpointWater temp
2018-Jul-22 06:26N 34°41' E 135°12'0 0.0
2018-Jul-22 05:56N 34°41' E 135°12'0 0.0
2018-Jul-22 05:26N 34°41' E 135°12'0 0.0
2018-Jul-22 04:50N 34°41' E 135°12'0 0.0
2018-Jul-22 04:26N 34°41' E 135°12'0 0.0
2018-Jul-22 03:56N 34°41' E 135°12'0 0.0
2018-Jul-22 03:26N 34°41' E 135°12'0 0.0
2018-Jul-22 02:56N 34°41' E 135°12'0 0.0
2018-Jul-22 02:26N 34°41' E 135°12'0 0.0
2018-Jul-22 01:50N 34°41' E 135°12'0 0.0
2018-Jul-22 01:26N 34°41' E 135°12'0 0.0
2018-Jul-22 00:56N 34°41' E 135°12'0 0.0
2018-Jul-22 00:26N 34°41' E 135°12'0 0.0
2018-Jul-22 00:00N 34°41' E 135°12'2 4.8
2018-Jul-21 23:30N 34°40' E 135°15'2 3.3
2018-Jul-21 23:00N 34°39' E 135°15'0 0.0
2018-Jul-21 22:29N 34°39' E 135°15'0 0.0
2018-Jul-21 22:00N 34°39' E 135°15'0 0.0
2018-Jul-21 21:21N 34°39' E 135°15'0 0.0
2018-Jul-21 20:57N 34°39' E 135°15'0 0.0
2018-Jul-21 20:27N 34°39' E 135°15'0 0.0
2018-Jul-21 19:57N 34°39' E 135°15'0 0.0
2018-Jul-21 19:27N 34°39' E 135°15'0 0.0
2018-Jul-21 18:57N 34°39' E 135°15'0 0.0
2018-Jul-21 18:27N 34°39' E 135°15'0 0.0
2018-Jul-21 17:51N 34°38' E 135°15'0 0.0
2018-Jul-21 17:27N 34°38' E 135°15'0 0.1
2018-Jul-21 16:51N 34°38' E 135°15'0 0.0
2018-Jul-21 16:27N 34°38' E 135°15'0 0.0
2018-Jul-21 15:45N 34°38' E 135°15'0 0.0
2018-Jul-21 15:27N 34°38' E 135°15'0 0.0
2018-Jul-21 14:51N 34°39' E 135°15'0 0.4
2018-Jul-21 14:30N 34°38' E 135°15'1111.0
2018-Jul-21 13:31N 34°36' E 135°02'812.4
2018-Jul-21 12:52N 34°35' E 134°53'513.0
2018-Jul-21 12:30N 34°33' E 134°48'612.7
2018-Jul-21 12:00N 34°30' E 134°41'612.2
2018-Jul-21 11:30N 34°28' E 134°34'612.2
2018-Jul-21 11:00N 34°26' E 134°27'612.0
2018-Jul-21 10:30N 34°24' E 134°20'7 0.3
2018-Jul-20 12:44N 34°25' E 134°12'312.1
2018-Jul-20 12:31N 34°24' E 134°15'1212.2
2018-Jul-20 11:31N 34°28' E 134°29'011.8
2018-Jul-20 11:29N 34°29' E 134°29'2012.1
2018-Jul-20 09:51N 34°35' E 134°52'512.4
2018-Jul-20 09:28N 34°37' E 134°57'611.5
2018-Jul-20 08:59N 34°36' E 135°04'611.5
2018-Jul-20 08:30N 34°37' E 135°11'4 8.0
2018-Jul-20 08:00N 34°39' E 135°15'1 1.0
2018-Jul-20 07:31N 34°39' E 135°15'510.3
2018-Jul-20 07:00N 34°39' E 135°21'3 6.2
2018-Jul-20 06:30N 34°38' E 135°25'0 0.1
2018-Jul-20 06:00N 34°38' E 135°25'2 3.8
2018-Jul-20 05:30N 34°38' E 135°23'0 0.0
2018-Jul-20 04:56N 34°38' E 135°23'0 0.0
2018-Jul-20 04:26N 34°38' E 135°23'0 0.1
2018-Jul-20 03:58N 34°38' E 135°23'4 8.9
2018-Jul-20 03:31N 34°36' E 135°18'4 8.2
2018-Jul-20 03:00N 34°39' E 135°15'0 0.3
2018-Jul-20 02:30N 34°39' E 135°15'1 2.0
2018-Jul-20 02:00N 34°40' E 135°14'1 3.0
2018-Jul-20 01:30N 34°41' E 135°15'0 0.1
2018-Jul-20 01:00N 34°41' E 135°15'0 0.0
2018-Jul-20 00:30N 34°41' E 135°15'0 0.0
2018-Jul-20 00:00N 34°41' E 135°15'2 4.3
2018-Jul-19 23:31N 34°39' E 135°15'0 0.2
2018-Jul-19 22:59N 34°39' E 135°15'0 0.0
2018-Jul-19 22:29N 34°39' E 135°15'0 0.0
2018-Jul-19 21:59N 34°39' E 135°15'0 0.0
2018-Jul-19 21:29N 34°39' E 135°15'0 0.0
2018-Jul-19 20:53N 34°39' E 135°15'0 0.0
2018-Jul-19 20:17N 34°39' E 135°15'0 0.0
2018-Jul-19 19:59N 34°39' E 135°15'0 0.0
2018-Jul-19 19:26N 34°39' E 135°15'0 0.0
2018-Jul-19 18:59N 34°39' E 135°15'0 0.0
2018-Jul-19 18:29N 34°39' E 135°15'0 0.0
2018-Jul-19 17:59N 34°39' E 135°15'0 0.0
2018-Jul-19 17:29N 34°39' E 135°15'0 0.0
2018-Jul-19 16:53N 34°39' E 135°15'0 0.1
2018-Jul-19 16:29N 34°39' E 135°15'2 5.0
2018-Jul-19 16:00N 34°37' E 135°13'611.7
2018-Jul-19 15:29N 34°35' E 135°06'5 9.4
2018-Jul-19 15:00N 34°37' E 135°01'710.4
2018-Jul-19 14:17N 34°34' E 134°52'911.6
2018-Jul-19 13:30N 34°31' E 134°42'612.4
2018-Jul-19 13:00N 34°29' E 134°35'612.1
2018-Jul-19 12:29N 34°26' E 134°28'612.2
2018-Jul-19 12:00N 34°24' E 134°21'6 0.3
2018-Jul-18 14:40N 34°24' E 134°14'513.2
2018-Jul-18 14:17N 34°25' E 134°20'1012.4
2018-Jul-18 13:31N 34°29' E 134°31'1912.6
2018-Jul-18 12:00N 34°35' E 134°52'612.6
2018-Jul-18 11:30N 34°38' E 134°59'1010.1
2018-Jul-18 10:31N 34°36' E 135°11'611.8
2018-Jul-18 10:00N 34°37' E 135°19'5 9.5
2018-Jul-18 09:31N 34°37' E 135°24'1 1.2
2018-Jul-18 09:00N 34°38' E 135°25'0 0.0
2018-Jul-18 08:31N 34°38' E 135°25'0 0.0
2018-Jul-18 07:59N 34°38' E 135°25'1 1.4
2018-Jul-18 07:31N 34°38' E 135°24'2 2.9
2018-Jul-18 06:59N 34°37' E 135°22'0 0.0
2018-Jul-18 06:29N 34°37' E 135°22'0 0.0
2018-Jul-18 05:59N 34°37' E 135°22'0 0.0
2018-Jul-18 05:17N 34°37' E 135°22'0 0.0
2018-Jul-18 04:59N 34°37' E 135°22'0 0.0
2018-Jul-18 04:23N 34°37' E 135°22'0 0.0
2018-Jul-18 03:59N 34°37' E 135°22'0 0.1
2018-Jul-18 03:29N 34°37' E 135°22'2 3.1
2018-Jul-18 02:57N 34°36' E 135°21'4 8.3
2018-Jul-18 02:30N 34°38' E 135°17'3 5.4
2018-Jul-18 02:00N 34°40' E 135°14'0 0.0
2018-Jul-18 01:30N 34°40' E 135°14'0 0.1
2018-Jul-18 01:00N 34°40' E 135°14'1 1.7
2018-Jul-18 00:29N 34°39' E 135°15'0 0.0
2018-Jul-18 00:00N 34°39' E 135°15'0 0.1
2018-Jul-17 23:30N 34°39' E 135°15'0 0.6
2018-Jul-17 23:00N 34°39' E 135°15'0 0.1
2018-Jul-17 22:24N 34°39' E 135°15'0 0.0
2018-Jul-17 21:36N 34°39' E 135°15'0 0.1
2018-Jul-17 21:27N 34°39' E 135°15'0 0.1
2018-Jul-17 21:00N 34°39' E 135°15'0 0.0
2018-Jul-17 20:30N 34°39' E 135°15'0 0.0
2018-Jul-17 20:00N 34°39' E 135°15'0 0.0
2018-Jul-17 19:30N 34°39' E 135°15'0 0.0
2018-Jul-17 19:00N 34°39' E 135°15'0 0.1
2018-Jul-17 18:30N 34°39' E 135°15'0 0.0
2018-Jul-17 18:00N 34°39' E 135°15'0 0.0
2018-Jul-17 17:30N 34°39' E 135°15'0 0.1
2018-Jul-17 17:00N 34°39' E 135°15'4 8.7
2018-Jul-17 16:31N 34°36' E 135°10'611.0
2018-Jul-17 16:00N 34°36' E 135°04'5 9.2
2018-Jul-17 15:28N 34°37' E 134°58'4 9.2
2018-Jul-17 15:00N 34°35' E 134°53'4 8.7
2018-Jul-17 14:30N 34°33' E 134°48'510.3
2018-Jul-17 14:00N 34°31' E 134°43'611.5
2018-Jul-17 13:30N 34°29' E 134°36'612.1
2018-Jul-17 13:00N 34°27' E 134°29'611.7
2018-Jul-17 12:29N 34°24' E 134°22'7 0.3
2018-Jul-16 12:02N 34°24' E 134°13'115.5
2018-Jul-16 12:00N 34°24' E 134°14'713.7
2018-Jul-16 11:30N 34°25' E 134°22'713.0
2018-Jul-16 10:57N 34°28' E 134°30'1612.3
2018-Jul-16 09:39N 34°34' E 134°48'212.6
2018-Jul-16 09:28N 34°35' E 134°51'611.8
2018-Jul-16 08:59N 34°37' E 134°57'4 9.2
2018-Jul-16 08:30N 34°37' E 135°03'4 8.3
2018-Jul-16 08:00N 34°36' E 135°08'612.0
2018-Jul-16 07:30N 34°38' E 135°15'2 4.3
2018-Jul-16 07:00N 34°40' E 135°14'0 0.0
2018-Jul-16 06:30N 34°40' E 135°14'0 0.4
2018-Jul-16 06:00N 34°40' E 135°14'1 2.7
2018-Jul-16 05:29N 34°39' E 135°16'4 8.2
2018-Jul-16 05:00N 34°39' E 135°20'4 7.7
2018-Jul-16 04:30N 34°38' E 135°25'0 0.2
2018-Jul-16 04:00N 34°38' E 135°25'0 0.0
2018-Jul-16 03:30N 34°38' E 135°25'2 3.7
2018-Jul-16 03:00N 34°38' E 135°23'4 8.0
2018-Jul-16 02:30N 34°39' E 135°19'2 4.2
2018-Jul-16 02:00N 34°41' E 135°17'0 0.7
2018-Jul-16 01:30N 34°41' E 135°16'2 4.0
2018-Jul-16 01:00N 34°39' E 135°15'0 0.1
2018-Jul-16 00:30N 34°39' E 135°15'0 0.0
2018-Jul-16 00:00N 34°39' E 135°15'0 0.2
2018-Jul-15 23:30N 34°39' E 135°15'1 1.6
2018-Jul-15 23:00N 34°40' E 135°15'1 2.8
2018-Jul-15 22:30N 34°40' E 135°13'0 0.0
2018-Jul-15 22:00N 34°40' E 135°13'0 0.0
2018-Jul-15 21:28N 34°40' E 135°13'0 0.0
2018-Jul-15 20:58N 34°40' E 135°13'0 0.0
2018-Jul-15 20:28N 34°40' E 135°13'0 0.0
2018-Jul-15 19:52N 34°40' E 135°13'0 0.0
2018-Jul-15 19:28N 34°40' E 135°13'0 0.0
2018-Jul-15 18:58N 34°40' E 135°13'0 0.0
2018-Jul-15 18:22N 34°40' E 135°13'0 0.0
2018-Jul-15 17:58N 34°40' E 135°13'0 0.0
2018-Jul-15 17:22N 34°40' E 135°13'0 0.0
2018-Jul-15 16:58N 34°40' E 135°13'0 0.0
2018-Jul-15 16:28N 34°40' E 135°13'0 0.0
2018-Jul-15 15:58N 34°40' E 135°13'0 0.0
2018-Jul-15 15:28N 34°40' E 135°13'0 0.0
2018-Jul-15 14:52N 34°40' E 135°13'0 0.0
2018-Jul-15 14:22N 34°40' E 135°13'0 0.0
2018-Jul-15 13:58N 34°40' E 135°13'0 0.0
2018-Jul-15 13:28N 34°40' E 135°13'0 0.0
2018-Jul-15 12:58N 34°40' E 135°13'0 0.0
2018-Jul-15 12:28N 34°40' E 135°13'0 0.0
2018-Jul-15 11:58N 34°40' E 135°13'0 0.0
2018-Jul-15 11:28N 34°40' E 135°13'0 0.0
2018-Jul-15 10:58N 34°40' E 135°13'0 0.0
2018-Jul-15 10:16N 34°40' E 135°13'0 0.0
2018-Jul-15 09:58N 34°40' E 135°13'0 0.0
2018-Jul-15 09:22N 34°40' E 135°13'0 0.0
2018-Jul-15 08:58N 34°40' E 135°13'0 0.0
2018-Jul-15 08:28N 34°40' E 135°13'0 0.0
2018-Jul-15 07:58N 34°40' E 135°13'0 0.0
2018-Jul-15 07:22N 34°40' E 135°13'0 0.0
2018-Jul-15 06:58N 34°40' E 135°13'0 0.0
2018-Jul-15 06:28N 34°40' E 135°13'0 0.0
2018-Jul-15 05:58N 34°40' E 135°13'0 0.0
2018-Jul-15 05:28N 34°40' E 135°13'0 0.0
2018-Jul-15 04:58N 34°40' E 135°13'0 0.0
2018-Jul-15 04:28N 34°40' E 135°13'0 0.0
2018-Jul-15 03:58N 34°40' E 135°13'0 0.0
2018-Jul-15 03:28N 34°40' E 135°13'0 0.0
2018-Jul-15 02:58N 34°40' E 135°13'0 0.0
2018-Jul-15 02:28N 34°40' E 135°13'0 0.0
2018-Jul-15 01:58N 34°40' E 135°13'0 0.0
2018-Jul-15 01:28N 34°40' E 135°13'0 0.0
2018-Jul-15 00:52N 34°40' E 135°13'0 0.0
2018-Jul-15 00:28N 34°40' E 135°13'0 0.0
2018-Jul-15 00:01N 34°40' E 135°13'1 2.7
2018-Jul-14 23:31N 34°40' E 135°15'1 2.9
2018-Jul-14 23:01N 34°39' E 135°15'0 0.1
2018-Jul-14 22:29N 34°39' E 135°15'0 0.1
2018-Jul-14 21:53N 34°39' E 135°15'0 0.1
2018-Jul-14 21:23N 34°39' E 135°15'0 0.0
2018-Jul-14 20:59N 34°39' E 135°15'0 0.0
2018-Jul-14 20:29N 34°39' E 135°15'0 0.0
2018-Jul-14 19:59N 34°39' E 135°15'0 0.0
2018-Jul-14 19:29N 34°39' E 135°15'0 0.0
2018-Jul-14 18:59N 34°39' E 135°15'0 0.0
2018-Jul-14 18:29N 34°39' E 135°15'0 0.0
2018-Jul-14 17:59N 34°39' E 135°15'0 0.0
2018-Jul-14 17:29N 34°39' E 135°15'0 0.0
2018-Jul-14 16:59N 34°39' E 135°15'0 0.0
2018-Jul-14 16:26N 34°39' E 135°15'0 0.0
2018-Jul-14 15:59N 34°39' E 135°15'0 0.0
2018-Jul-14 15:29N 34°39' E 135°15'0 0.0
2018-Jul-14 14:56N 34°39' E 135°15'0 0.0
2018-Jul-14 14:29N 34°39' E 135°15'0 0.0
2018-Jul-14 13:29N 34°39' E 135°15'0 0.1
2018-Jul-14 13:00N 34°39' E 135°15'510.0
2018-Jul-14 12:30N 34°36' E 135°10'611.3
2018-Jul-14 12:00N 34°36' E 135°03'5 7.4
2018-Jul-14 11:22N 34°36' E 134°57'4 9.3
2018-Jul-14 10:59N 34°35' E 134°53'5 9.7
2018-Jul-14 10:30N 34°33' E 134°48'611.4
2018-Jul-14 10:00N 34°31' E 134°41'612.7
2018-Jul-14 09:30N 34°28' E 134°34'612.8
2018-Jul-14 09:00N 34°26' E 134°27'612.7
2018-Jul-14 08:30N 34°24' E 134°20'2 0.1
2018-Jul-13 09:39N 34°25' E 134°22'213.4
2018-Jul-13 09:30N 34°26' E 134°24'2412.7
2018-Jul-13 07:38N 34°35' E 134°51'312.3
2018-Jul-13 07:25N 34°36' E 134°54'611.2
2018-Jul-13 06:52N 34°37' E 135°01'3 8.5
2018-Jul-13 06:30N 34°36' E 135°05'612.1
2018-Jul-13 06:00N 34°37' E 135°12'611.2
2018-Jul-13 05:30N 34°40' E 135°18'1 2.1
2018-Jul-13 04:51N 34°41' E 135°17'1 3.8
2018-Jul-13 04:30N 34°40' E 135°15'1 2.1
2018-Jul-13 04:00N 34°40' E 135°14'0 0.0
2018-Jul-13 03:31N 34°40' E 135°14'0 0.0
2018-Jul-13 03:01N 34°40' E 135°14'0 0.0
2018-Jul-13 02:30N 34°40' E 135°14'1 1.8
2018-Jul-13 02:00N 34°39' E 135°15'0 0.3
2018-Jul-13 01:28N 34°39' E 135°15'0 0.0
2018-Jul-13 01:01N 34°39' E 135°15'1 1.6
2018-Jul-13 00:31N 34°40' E 135°15'1 2.0
2018-Jul-13 00:00N 34°41' E 135°15'0 0.0
2018-Jul-12 23:31N 34°41' E 135°15'1 2.9
2018-Jul-12 23:00N 34°39' E 135°15'1 1.4
2018-Jul-12 22:30N 34°39' E 135°15'0 0.0
2018-Jul-12 21:55N 34°39' E 135°15'0 0.1
2018-Jul-12 21:28N 34°39' E 135°15'0 0.1
2018-Jul-12 20:49N 34°39' E 135°15'0 0.0
2018-Jul-12 20:28N 34°39' E 135°15'0 0.0
2018-Jul-12 19:55N 34°39' E 135°15'0 0.0
2018-Jul-12 19:28N 34°39' E 135°15'0 0.0
2018-Jul-12 18:49N 34°39' E 135°15'0 0.0
2018-Jul-12 18:25N 34°39' E 135°15'0 0.0
2018-Jul-12 17:55N 34°39' E 135°15'0 0.0
2018-Jul-12 17:25N 34°39' E 135°15'1 3.5
2018-Jul-12 17:00N 34°38' E 135°14'611.3
2018-Jul-12 16:30N 34°35' E 135°08'612.9
2018-Jul-12 16:00N 34°37' E 134°60'612.5
2018-Jul-12 15:31N 34°35' E 134°53'611.3
2018-Jul-12 15:01N 34°33' E 134°47'511.0
2018-Jul-12 14:31N 34°31' E 134°40'611.9
2018-Jul-12 14:00N 34°28' E 134°34'611.8
2018-Jul-12 13:30N 34°26' E 134°27'711.1
2018-Jul-12 12:50N 34°24' E 134°19'  

Dump ship's entire track history